createdAt,value
2022-08-11T00:00:48.939Z,8.91
2022-08-11T00:01:51.608Z,5.44
2022-08-11T00:02:54.553Z,5.88
2022-08-11T00:03:57.468Z,7.52
2022-08-11T00:05:00.337Z,6.22
2022-08-11T00:06:02.896Z,6.21
2022-08-11T00:07:05.679Z,6.88
2022-08-11T00:08:08.460Z,9.76
2022-08-11T00:09:11.019Z,8.13
2022-08-11T00:10:13.688Z,8.32
2022-08-11T00:11:16.353Z,8.60
2022-08-11T00:12:19.429Z,6.62
2022-08-11T00:13:22.208Z,5.61
2022-08-11T00:14:24.890Z,5.73
2022-08-11T00:15:29.180Z,6.96
2022-08-11T00:16:31.746Z,4.82
2022-08-11T00:17:34.634Z,4.67
2022-08-11T00:18:37.197Z,6.78
2022-08-11T00:20:15.436Z,5.99
2022-08-11T00:20:43.978Z,6.30
2022-08-11T00:22:04.650Z,7.25
2022-08-11T00:22:50.936Z,6.19
2022-08-11T00:23:53.718Z,6.28
2022-08-11T00:25:01.583Z,3.74
2022-08-11T00:26:00.706Z,6.40
2022-08-11T00:27:03.358Z,6.90
2022-08-11T00:28:06.137Z,5.18
2022-08-11T00:29:08.721Z,5.48
2022-08-11T00:30:11.281Z,5.49
2022-08-11T00:31:14.363Z,7.08
2022-08-11T00:32:17.132Z,6.27
2022-08-11T00:33:19.997Z,4.79
2022-08-11T00:34:24.313Z,4.86
2022-08-11T00:35:54.810Z,5.20
2022-08-11T00:36:31.342Z,6.14
2022-08-11T00:37:34.071Z,5.65
2022-08-11T00:38:36.732Z,5.55
2022-08-11T00:39:39.655Z,5.03
2022-08-11T00:40:42.268Z,6.06
2022-08-11T00:41:44.888Z,5.82
2022-08-11T00:42:47.412Z,4.60
2022-08-11T00:43:50.390Z,7.03
2022-08-11T00:44:53.264Z,5.53
2022-08-11T00:45:56.141Z,5.65
2022-08-11T00:47:00.419Z,5.95
2022-08-11T00:48:03.228Z,5.17
2022-08-11T00:49:05.896Z,6.05
2022-08-11T00:50:08.558Z,5.71
2022-08-11T00:51:11.228Z,5.08
2022-08-11T00:52:13.889Z,7.08
2022-08-11T00:53:16.680Z,6.47
2022-08-11T00:54:20.977Z,5.08
2022-08-11T00:55:23.646Z,6.53
2022-08-11T00:56:26.217Z,6.60
2022-08-11T00:57:37.135Z,5.67
2022-08-11T00:58:33.092Z,5.01
2022-08-11T00:59:37.194Z,7.03
2022-08-11T01:00:39.972Z,6.34
2022-08-11T01:01:42.635Z,6.65
2022-08-11T01:02:45.510Z,4.15
2022-08-11T01:03:48.180Z,3.06
2022-08-11T01:04:55.563Z,3.48
2022-08-11T01:05:55.258Z,3.77
2022-08-11T01:06:58.236Z,4.42
2022-08-11T01:08:03.507Z,5.34
2022-08-11T01:09:05.523Z,4.51
2022-08-11T01:10:08.498Z,4.93
2022-08-11T01:11:11.470Z,4.45
2022-08-11T01:12:14.263Z,3.35
2022-08-11T01:13:17.125Z,3.94
2022-08-11T01:14:34.091Z,3.35
2022-08-11T01:15:24.410Z,4.13
2022-08-11T01:16:27.310Z,4.16
2022-08-11T01:17:30.171Z,4.65
2022-08-11T01:18:32.621Z,3.52
2022-08-11T01:20:47.009Z,4.04
2022-08-11T01:20:47.035Z,3.43
2022-08-11T01:21:43.396Z,3.03
2022-08-11T01:22:45.975Z,4.94
2022-08-11T01:23:48.627Z,4.97
2022-08-11T01:24:51.416Z,3.94
2022-08-11T01:25:56.999Z,5.75
2022-08-11T01:26:58.794Z,7.22
2022-08-11T01:28:01.667Z,5.67
2022-08-11T01:29:04.537Z,4.94
2022-08-11T01:30:07.312Z,4.92
2022-08-11T01:31:10.187Z,5.23
2022-08-11T01:32:13.060Z,4.84
2022-08-11T01:33:16.039Z,4.31
2022-08-11T01:34:19.024Z,4.56
2022-08-11T01:35:21.889Z,4.12
2022-08-11T01:36:24.780Z,5.35
2022-08-11T01:37:27.542Z,4.75
2022-08-11T01:38:30.207Z,4.08
2022-08-11T01:39:33.241Z,4.34
2022-08-11T01:40:35.862Z,4.11
2022-08-11T01:41:38.826Z,4.32
2022-08-11T01:42:42.944Z,4.46
2022-08-11T01:43:45.512Z,4.36
2022-08-11T01:44:48.180Z,3.07
2022-08-11T01:45:50.950Z,3.35
2022-08-11T01:46:53.831Z,6.67
2022-08-11T01:47:56.494Z,4.58
2022-08-11T01:48:59.066Z,4.34
2022-08-11T01:50:09.427Z,4.15
2022-08-11T01:51:05.827Z,3.56
2022-08-11T01:52:08.498Z,3.95
2022-08-11T01:53:11.168Z,3.78
2022-08-11T01:54:13.947Z,2.96
2022-08-11T01:55:16.527Z,3.05
2022-08-11T01:56:19.087Z,3.30
2022-08-11T01:57:21.756Z,3.65
2022-08-11T01:58:43.209Z,4.09
2022-08-11T01:59:28.730Z,6.70
2022-08-11T02:00:31.448Z,4.28
2022-08-11T02:01:34.173Z,4.12
2022-08-11T02:02:37.054Z,5.27
2022-08-11T02:03:39.818Z,3.55
2022-08-11T02:04:42.382Z,3.22
2022-08-11T02:05:45.047Z,5.75
2022-08-11T02:06:47.620Z,3.02
2022-08-11T02:07:50.192Z,4.05
2022-08-11T02:08:52.754Z,3.77
2022-08-11T02:09:56.349Z,3.95
2022-08-11T02:10:59.121Z,3.38
2022-08-11T02:12:02.813Z,5.11
2022-08-11T02:13:05.389Z,4.19
2022-08-11T02:14:09.481Z,4.59
2022-08-11T02:15:12.046Z,7.17
2022-08-11T02:16:14.721Z,3.83
2022-08-11T02:17:17.813Z,4.44
2022-08-11T02:18:20.476Z,3.89
2022-08-11T02:19:25.005Z,5.61
2022-08-11T02:20:27.750Z,2.94
2022-08-11T02:21:30.737Z,4.35
2022-08-11T02:22:33.386Z,6.18
2022-08-11T02:24:05.070Z,4.53
2022-08-11T02:24:40.559Z,4.70
2022-08-11T02:25:43.333Z,5.10
2022-08-11T02:26:46.624Z,3.68
2022-08-11T02:27:49.492Z,5.42
2022-08-11T02:28:52.367Z,4.18
2022-08-11T02:29:55.150Z,5.18
2022-08-11T02:30:58.224Z,4.51
2022-08-11T02:32:15.587Z,4.92
2022-08-11T02:33:05.715Z,4.55
2022-08-11T02:34:08.689Z,6.05
2022-08-11T02:35:11.562Z,4.78
2022-08-11T02:36:14.637Z,4.25
2022-08-11T02:37:23.686Z,5.52
2022-08-11T02:38:21.823Z,5.36
2022-08-11T02:39:24.991Z,5.68
2022-08-11T02:40:27.775Z,7.60
2022-08-11T02:41:30.550Z,6.75
2022-08-11T02:42:36.176Z,6.58
2022-08-11T02:43:37.835Z,6.85
2022-08-11T02:44:42.240Z,8.61
2022-08-11T02:45:44.914Z,7.43
2022-08-11T02:46:47.893Z,7.58
2022-08-11T02:47:50.876Z,7.92
2022-08-11T02:48:53.538Z,9.48
2022-08-11T02:50:02.499Z,8.08
2022-08-11T02:51:01.131Z,7.77
2022-08-11T02:52:04.231Z,7.45
2022-08-11T02:53:07.084Z,6.68
2022-08-11T02:54:09.856Z,7.39
2022-08-11T02:55:12.645Z,7.38
2022-08-11T02:56:16.939Z,8.84
2022-08-11T02:57:19.813Z,8.38
2022-08-11T02:58:27.210Z,7.78
2022-08-11T02:59:26.889Z,9.10
2022-08-11T03:00:29.667Z,7.72
2022-08-11T03:01:32.567Z,8.72
2022-08-11T03:02:35.415Z,8.76
2022-08-11T03:03:38.283Z,9.44
2022-08-11T03:04:40.958Z,9.53
2022-08-11T03:05:43.627Z,8.98
2022-08-11T03:06:46.398Z,7.33
2022-08-11T03:07:49.172Z,7.27
2022-08-11T03:08:52.520Z,6.73
2022-08-11T03:09:55.533Z,7.34
2022-08-11T03:10:58.421Z,7.92
2022-08-11T03:12:01.523Z,7.56
2022-08-11T03:13:06.002Z,9.01
2022-08-11T03:14:08.973Z,9.42
2022-08-11T03:15:11.857Z,8.18
2022-08-11T03:16:14.931Z,9.90
2022-08-11T03:17:17.928Z,9.78
2022-08-11T03:18:20.890Z,8.44
2022-08-11T03:19:24.276Z,6.82
2022-08-11T03:20:38.070Z,9.23
2022-08-11T03:22:01.563Z,6.97
2022-08-11T03:22:36.116Z,6.74
2022-08-11T03:23:39.158Z,5.80
2022-08-11T03:24:42.131Z,5.45
2022-08-11T03:25:45.001Z,6.04
2022-08-11T03:26:47.682Z,4.33
2022-08-11T03:27:50.757Z,7.57
2022-08-11T03:28:53.834Z,6.82
2022-08-11T03:29:57.137Z,7.42
2022-08-11T03:31:00.107Z,5.22
2022-08-11T03:32:03.176Z,3.95
2022-08-11T03:33:06.562Z,4.90
2022-08-11T03:34:09.843Z,5.45
2022-08-11T03:35:16.885Z,3.88
2022-08-11T03:36:17.537Z,5.46
2022-08-11T03:37:20.313Z,4.76
2022-08-11T03:38:23.801Z,5.90
2022-08-11T03:39:28.382Z,3.99
2022-08-11T03:40:31.191Z,3.34
2022-08-11T03:42:02.563Z,3.20
2022-08-11T03:42:38.485Z,3.16
2022-08-11T03:43:50.109Z,3.08
2022-08-11T03:44:45.764Z,3.51
2022-08-11T03:45:48.837Z,3.25
2022-08-11T03:46:51.914Z,3.67
2022-08-11T03:47:55.513Z,4.43
2022-08-11T03:48:58.903Z,2.91
2022-08-11T03:50:02.177Z,3.88
2022-08-11T03:51:05.256Z,4.57
2022-08-11T03:52:08.333Z,5.39
2022-08-11T03:53:11.413Z,7.29
2022-08-11T03:54:14.288Z,8.85
2022-08-11T03:55:17.375Z,4.09
2022-08-11T03:56:20.657Z,7.08
2022-08-11T03:57:23.837Z,2.79
2022-08-11T03:58:26.814Z,3.62
2022-08-11T03:59:29.486Z,4.17
2022-08-11T04:00:32.357Z,4.31
2022-08-11T04:01:35.418Z,4.31
2022-08-11T04:02:38.322Z,3.98
2022-08-11T04:03:41.390Z,2.72
2022-08-11T04:04:45.174Z,2.94
2022-08-11T04:05:48.678Z,3.21
2022-08-11T04:06:51.450Z,5.16
2022-08-11T04:07:54.334Z,3.06
2022-08-11T04:08:57.115Z,2.57
2022-08-11T04:09:59.972Z,3.20
2022-08-11T04:11:02.846Z,4.39
2022-08-11T04:12:05.829Z,3.94
2022-08-11T04:13:08.811Z,3.16
2022-08-11T04:14:11.776Z,4.53
2022-08-11T04:15:14.756Z,4.91
2022-08-11T04:16:17.733Z,2.52
2022-08-11T04:17:22.921Z,2.39
2022-08-11T04:18:25.530Z,6.07
2022-08-11T04:19:28.521Z,3.35
2022-08-11T04:20:31.278Z,3.67
2022-08-11T04:21:34.364Z,4.48
2022-08-11T04:22:37.679Z,2.78
2022-08-11T04:24:34.642Z,4.70
2022-08-11T04:26:16.058Z,3.59
2022-08-11T04:27:08.285Z,3.31
2022-08-11T04:28:28.653Z,3.31
2022-08-11T04:29:17.417Z,3.64
2022-08-11T04:30:20.492Z,3.42
2022-08-11T04:31:50.424Z,3.31
2022-08-11T04:32:27.985Z,2.88
2022-08-11T04:33:34.193Z,3.52
2022-08-11T04:34:35.576Z,4.41
2022-08-11T04:35:38.456Z,3.32
2022-08-11T04:36:41.323Z,2.55
2022-08-11T04:37:44.203Z,2.75
2022-08-11T04:38:48.610Z,2.88
2022-08-11T04:39:51.364Z,3.85
2022-08-11T04:40:54.255Z,5.00
2022-08-11T04:41:57.242Z,3.20
2022-08-11T04:43:00.208Z,3.93
2022-08-11T04:44:06.183Z,2.92
2022-08-11T04:45:08.111Z,5.17
2022-08-11T04:46:11.091Z,4.25
2022-08-11T04:47:13.960Z,4.05
2022-08-11T04:48:16.843Z,4.84
2022-08-11T04:49:24.926Z,4.68
2022-08-11T04:50:24.735Z,3.49
2022-08-11T04:51:27.508Z,4.43
2022-08-11T04:52:36.089Z,3.73
2022-08-11T04:53:34.909Z,4.13
2022-08-11T04:54:37.771Z,6.73
2022-08-11T04:55:40.646Z,3.92
2022-08-11T04:56:43.415Z,3.62
2022-08-11T04:57:46.288Z,3.19
2022-08-11T04:58:48.961Z,3.19
2022-08-11T04:59:51.635Z,3.42
2022-08-11T05:00:54.822Z,3.66
2022-08-11T05:01:59.481Z,3.44
2022-08-11T05:03:02.404Z,3.48
2022-08-11T05:04:05.486Z,4.11
2022-08-11T05:05:08.667Z,4.93
2022-08-11T05:06:11.562Z,5.82
2022-08-11T05:07:14.519Z,4.37
2022-08-11T05:08:21.877Z,4.25
2022-08-11T05:09:22.006Z,4.73
2022-08-11T05:10:25.391Z,5.29
2022-08-11T05:11:28.473Z,3.68
2022-08-11T05:12:31.448Z,3.22
2022-08-11T05:13:34.426Z,2.33
2022-08-11T05:14:37.200Z,3.75
2022-08-11T05:15:43.147Z,4.34
2022-08-11T05:16:44.702Z,5.12
2022-08-11T05:17:47.565Z,3.69
2022-08-11T05:18:50.346Z,4.34
2022-08-11T05:19:53.209Z,4.80
2022-08-11T05:20:57.505Z,3.90
2022-08-11T05:22:00.605Z,3.25
2022-08-11T05:23:03.268Z,3.88
2022-08-11T05:24:06.252Z,3.04
2022-08-11T05:25:08.926Z,3.20
2022-08-11T05:26:46.909Z,2.76
2022-08-11T05:27:15.995Z,2.94
2022-08-11T05:28:18.774Z,3.48
2022-08-11T05:29:21.644Z,2.76
2022-08-11T05:30:24.519Z,2.25
2022-08-11T05:31:27.600Z,3.90
2022-08-11T05:32:30.780Z,1.48
2022-08-11T05:33:33.454Z,2.03
2022-08-11T05:34:36.325Z,3.50
2022-08-11T05:36:00.069Z,5.12
2022-08-11T05:36:43.712Z,5.02
2022-08-11T05:37:46.377Z,1.89
2022-08-11T05:38:49.257Z,2.28
2022-08-11T05:39:52.192Z,1.83
2022-08-11T05:41:00.191Z,3.45
2022-08-11T05:41:59.525Z,3.96
2022-08-11T05:43:02.393Z,2.13
2022-08-11T05:44:21.144Z,2.65
2022-08-11T05:45:15.591Z,2.65
2022-08-11T05:46:13.788Z,3.59
2022-08-11T05:47:16.658Z,5.98
2022-08-11T05:48:19.429Z,4.16
2022-08-11T05:49:22.202Z,3.88
2022-08-11T05:50:32.793Z,3.66
2022-08-11T05:51:30.447Z,2.59
2022-08-11T05:52:33.492Z,4.13
2022-08-11T05:53:45.764Z,3.47
2022-08-11T06:02:10.017Z,3.58
2022-08-11T06:03:12.698Z,5.85
2022-08-11T06:04:15.348Z,3.34
2022-08-11T06:05:19.468Z,4.46
2022-08-11T06:06:22.426Z,3.13
2022-08-11T06:07:25.199Z,3.18
2022-08-11T06:08:27.875Z,3.62
2022-08-11T06:09:30.541Z,4.01
2022-08-11T06:10:33.286Z,2.25
2022-08-11T06:11:44.293Z,3.12
2022-08-11T06:12:40.392Z,3.16
2022-08-11T06:13:43.071Z,3.72
2022-08-11T06:14:45.848Z,3.98
2022-08-11T06:15:48.810Z,3.15
2022-08-11T06:16:51.480Z,4.48
2022-08-11T06:17:54.277Z,2.92
2022-08-11T06:18:57.130Z,2.34
2022-08-11T06:20:07.187Z,3.94
2022-08-11T06:21:04.213Z,6.01
2022-08-11T06:22:07.292Z,5.48
2022-08-11T06:23:10.061Z,3.70
2022-08-11T06:24:12.842Z,3.44
2022-08-11T06:25:15.604Z,2.47
2022-08-11T06:26:18.481Z,2.90
2022-08-11T06:27:21.154Z,2.95
2022-08-11T06:28:24.022Z,3.17
2022-08-11T06:29:46.882Z,2.98
2022-08-11T06:30:31.419Z,2.61
2022-08-11T06:31:34.622Z,3.85
2022-08-11T06:32:37.569Z,3.75
2022-08-11T06:33:40.658Z,3.94
2022-08-11T06:34:43.323Z,4.54
2022-08-11T06:35:46.297Z,3.47
2022-08-11T06:36:49.080Z,3.09
2022-08-11T06:37:53.658Z,5.02
2022-08-11T06:38:56.572Z,4.95
2022-08-11T06:40:00.115Z,4.75
2022-08-11T06:41:03.023Z,4.39
2022-08-11T06:42:06.307Z,3.42
2022-08-11T06:43:09.505Z,5.25
2022-08-11T06:44:12.464Z,5.41
2022-08-11T06:45:15.651Z,3.21
2022-08-11T06:46:25.224Z,4.05
2022-08-11T06:47:23.546Z,4.40
2022-08-11T06:48:26.529Z,4.44
2022-08-11T06:49:29.703Z,4.28
2022-08-11T06:50:32.893Z,4.32
2022-08-11T06:51:36.174Z,4.49
2022-08-11T06:52:39.050Z,5.11
2022-08-11T06:53:42.133Z,7.43
2022-08-11T06:54:46.845Z,6.19
2022-08-11T06:55:57.068Z,6.15
2022-08-11T06:57:12.453Z,3.80
2022-08-11T06:57:58.972Z,3.55
2022-08-11T06:59:01.924Z,4.66
2022-08-11T07:00:05.014Z,4.39
2022-08-11T07:01:08.340Z,4.17
2022-08-11T07:02:11.369Z,3.95
2022-08-11T07:03:14.455Z,3.77
2022-08-11T07:04:17.323Z,4.29
2022-08-11T07:05:20.296Z,4.08
2022-08-11T07:06:23.689Z,4.16
2022-08-11T07:07:26.749Z,3.98
2022-08-11T07:08:33.061Z,3.98
2022-08-11T07:09:34.562Z,3.00
2022-08-11T07:10:37.339Z,4.56
2022-08-11T07:11:40.005Z,5.37
2022-08-11T07:12:42.576Z,5.64
2022-08-11T07:13:45.965Z,4.25
2022-08-11T07:14:48.832Z,4.44
2022-08-11T07:16:10.742Z,6.10
2022-08-11T07:16:56.732Z,4.53
2022-08-11T07:17:59.503Z,4.90
2022-08-11T07:19:02.685Z,5.24
2022-08-11T07:20:05.877Z,5.26
2022-08-11T07:22:01.279Z,5.06
2022-08-11T07:22:13.571Z,4.81
2022-08-11T07:23:16.741Z,7.52
2022-08-11T07:24:20.027Z,4.84
2022-08-11T07:25:24.438Z,4.31
2022-08-11T07:26:27.329Z,4.55
2022-08-11T07:27:35.054Z,4.57
2022-08-11T07:28:35.009Z,6.21
2022-08-11T07:29:37.781Z,5.03
2022-08-11T07:30:41.269Z,3.67
2022-08-11T07:31:43.942Z,6.63
2022-08-11T07:32:46.916Z,4.28
2022-08-11T07:34:07.243Z,3.80
2022-08-11T07:34:54.203Z,4.91
2022-08-11T07:35:57.294Z,5.83
2022-08-11T07:37:00.158Z,6.45
2022-08-11T07:38:04.840Z,5.13
2022-08-11T07:39:07.189Z,4.73
2022-08-11T07:40:09.911Z,5.95
2022-08-11T07:41:12.812Z,4.47
2022-08-11T07:42:15.757Z,6.58
2022-08-11T07:43:18.834Z,5.14
2022-08-11T07:44:21.811Z,4.85
2022-08-11T07:45:24.999Z,5.48
2022-08-11T07:46:28.075Z,4.72
2022-08-11T07:47:31.053Z,4.78
2022-08-11T07:48:34.033Z,6.10
2022-08-11T07:49:37.006Z,5.65
2022-08-11T07:50:39.680Z,4.24
2022-08-11T07:51:42.653Z,6.68
2022-08-11T07:52:45.439Z,5.56
2022-08-11T07:53:58.606Z,3.89
2022-08-11T07:54:52.698Z,6.06
2022-08-11T07:55:56.203Z,5.92
2022-08-11T07:57:09.095Z,5.63
2022-08-11T07:58:19.484Z,5.36
2022-08-11T07:59:09.235Z,5.51
2022-08-11T08:00:13.231Z,5.78
2022-08-11T08:01:21.935Z,6.13
2022-08-11T08:02:22.359Z,4.86
2022-08-11T08:03:25.332Z,5.91
2022-08-11T08:04:28.209Z,5.03
2022-08-11T08:05:31.088Z,4.07
2022-08-11T08:06:36.569Z,5.33
2022-08-11T08:07:38.267Z,5.02
2022-08-11T08:08:42.163Z,7.70
2022-08-11T08:09:45.142Z,5.12
2022-08-11T08:10:47.913Z,5.78
2022-08-11T08:11:50.684Z,6.27
2022-08-11T08:12:53.356Z,6.47
2022-08-11T08:13:56.127Z,6.37
2022-08-11T08:14:58.898Z,4.59
2022-08-11T08:16:03.315Z,5.24
2022-08-11T08:17:05.985Z,4.69
2022-08-11T08:18:26.104Z,5.52
2022-08-11T08:19:12.958Z,5.94
2022-08-11T08:20:15.625Z,5.02
2022-08-11T08:21:18.295Z,5.02
2022-08-11T08:22:38.665Z,5.58
2022-08-11T08:23:25.793Z,4.71
2022-08-11T08:24:28.666Z,7.60
2022-08-11T08:25:31.537Z,7.22
2022-08-11T08:26:34.516Z,5.72
2022-08-11T08:27:37.497Z,6.40
2022-08-11T08:28:40.206Z,7.52
2022-08-11T08:29:43.145Z,6.20
2022-08-11T08:30:46.010Z,7.83
2022-08-11T08:31:48.681Z,6.82
2022-08-11T08:32:51.451Z,5.10
2022-08-11T08:33:54.239Z,7.03
2022-08-11T08:34:57.228Z,5.70
2022-08-11T08:36:00.086Z,7.42
2022-08-11T08:37:02.950Z,4.58
2022-08-11T08:38:07.467Z,6.71
2022-08-11T08:39:10.198Z,4.90
2022-08-11T08:40:13.012Z,5.51
2022-08-11T08:41:16.604Z,6.14
2022-08-11T08:42:19.577Z,5.94
2022-08-11T08:43:22.656Z,5.13
2022-08-11T08:44:41.686Z,5.16
2022-08-11T08:45:30.049Z,5.44
2022-08-11T08:46:33.229Z,5.78
2022-08-11T08:47:37.839Z,6.15
2022-08-11T08:48:40.717Z,4.16
2022-08-11T08:49:43.692Z,5.38
2022-08-11T08:50:48.003Z,5.64
2022-08-11T08:52:01.309Z,6.31
2022-08-11T08:52:54.980Z,5.23
2022-08-11T08:53:58.497Z,5.58
2022-08-11T08:55:01.547Z,5.88
2022-08-11T08:56:04.542Z,4.84
2022-08-11T08:57:07.811Z,6.99
2022-08-11T08:58:10.680Z,3.98
2022-08-11T08:59:13.458Z,4.22
2022-08-11T09:00:19.384Z,5.35
2022-08-11T09:01:21.144Z,5.01
2022-08-11T09:02:34.661Z,4.89
2022-08-11T09:04:06.660Z,5.98
2022-08-11T09:04:32.962Z,6.56
2022-08-11T09:05:35.925Z,4.55
2022-08-11T09:06:38.902Z,5.92
2022-08-11T09:07:42.228Z,5.86
2022-08-11T09:08:45.479Z,6.55
2022-08-11T09:09:48.146Z,5.40
2022-08-11T09:10:50.915Z,5.14
2022-08-11T09:11:53.655Z,6.25
2022-08-11T09:12:56.353Z,5.93
2022-08-11T09:14:05.151Z,5.22
2022-08-11T09:15:03.434Z,4.71
2022-08-11T09:16:06.208Z,4.77
2022-08-11T09:17:08.876Z,3.87
2022-08-11T09:18:11.548Z,5.75
2022-08-11T09:19:14.224Z,4.24
2022-08-11T09:20:16.991Z,6.96
2022-08-11T09:21:41.725Z,6.83
2022-08-11T09:22:24.173Z,7.11
2022-08-11T09:24:07.971Z,7.73
2022-08-11T09:24:31.151Z,6.52
2022-08-11T09:25:34.142Z,7.96
2022-08-11T09:26:36.693Z,7.98
2022-08-11T09:27:39.729Z,9.43
2022-08-11T09:28:43.773Z,7.76
2022-08-11T09:29:46.445Z,8.12
2022-08-11T09:30:49.115Z,8.05
2022-08-11T09:31:51.990Z,7.42
2022-08-11T09:32:54.778Z,7.43
2022-08-11T09:33:57.433Z,6.34
2022-08-11T09:35:00.221Z,5.78
2022-08-11T09:36:02.871Z,6.39
2022-08-11T09:37:07.196Z,6.45
2022-08-11T09:38:09.850Z,5.01
2022-08-11T09:39:12.646Z,6.85
2022-08-11T09:40:15.400Z,6.86
2022-08-11T09:41:17.963Z,7.20
2022-08-11T09:42:23.249Z,5.49
2022-08-11T09:43:26.575Z,5.88
2022-08-11T09:44:29.357Z,6.62
2022-08-11T09:45:40.141Z,8.16
2022-08-11T09:46:36.533Z,6.24
2022-08-11T09:47:39.542Z,6.13
2022-08-11T09:48:42.491Z,7.25
2022-08-11T09:49:45.472Z,7.20
2022-08-11T09:50:48.152Z,6.30
2022-08-11T09:52:02.230Z,5.32
2022-08-11T09:53:34.898Z,8.07
2022-08-11T09:54:03.032Z,8.61
2022-08-11T09:55:04.244Z,7.01
2022-08-11T09:56:07.117Z,7.62
2022-08-11T09:57:09.896Z,7.75
2022-08-11T09:58:12.761Z,9.22
2022-08-11T09:59:17.090Z,9.26
2022-08-11T10:00:19.835Z,7.43
2022-08-11T10:01:22.686Z,9.48
2022-08-11T10:02:25.386Z,8.28
2022-08-11T10:03:28.058Z,8.25
2022-08-11T10:04:30.726Z,8.35
2022-08-11T10:05:33.496Z,6.98
2022-08-11T10:06:36.270Z,7.80
2022-08-11T10:07:39.244Z,8.66
2022-08-11T10:08:42.024Z,9.72
2022-08-11T10:09:44.795Z,9.55
2022-08-11T10:10:47.470Z,8.65
2022-08-11T10:11:55.485Z,9.03
2022-08-11T10:12:54.541Z,9.71
2022-08-11T10:14:31.462Z,9.33
2022-08-11T10:15:03.077Z,10.48
2022-08-11T10:16:15.160Z,10.37
2022-08-11T10:17:10.861Z,11.84
2022-08-11T10:18:13.830Z,10.27
2022-08-11T10:19:16.806Z,11.79
2022-08-11T10:20:25.303Z,9.18
2022-08-11T10:21:24.402Z,9.72
2022-08-11T10:22:27.698Z,9.30
2022-08-11T10:23:30.862Z,10.37
2022-08-11T10:24:33.851Z,7.36
2022-08-11T10:25:36.719Z,8.15
2022-08-11T10:26:39.490Z,12.31
2022-08-11T10:28:29.086Z,9.12
2022-08-11T10:29:11.675Z,8.15
2022-08-11T10:29:51.963Z,8.60
2022-08-11T10:30:54.980Z,8.36
2022-08-11T10:32:02.104Z,9.91
2022-08-11T10:33:04.011Z,12.31
2022-08-11T10:34:08.518Z,9.49
2022-08-11T10:35:13.032Z,9.86
2022-08-11T10:36:17.037Z,9.45
2022-08-11T10:37:20.022Z,9.41
2022-08-11T10:38:23.921Z,10.11
2022-08-11T10:39:26.899Z,8.61
2022-08-11T10:40:29.869Z,9.38
2022-08-11T10:41:32.850Z,7.42
2022-08-11T10:42:57.226Z,8.78
2022-08-11T10:44:03.395Z,6.97
2022-08-11T10:44:45.135Z,8.37
2022-08-11T10:45:47.822Z,6.99
2022-08-11T10:46:50.490Z,9.88
2022-08-11T10:47:53.162Z,9.35
2022-08-11T10:48:55.830Z,8.90
2022-08-11T10:49:58.807Z,8.76
2022-08-11T10:51:01.785Z,8.36
2022-08-11T10:52:04.457Z,7.58
2022-08-11T10:53:07.533Z,7.38
2022-08-11T10:54:12.518Z,7.83
2022-08-11T10:55:14.919Z,7.49
2022-08-11T10:56:17.900Z,7.77
2022-08-11T10:57:20.882Z,7.48
2022-08-11T10:58:23.749Z,9.27
2022-08-11T10:59:26.626Z,8.52
2022-08-11T11:00:29.602Z,6.82
2022-08-11T11:01:32.686Z,7.22
2022-08-11T11:02:35.556Z,10.15
2022-08-11T11:03:38.227Z,10.07
2022-08-11T11:04:40.899Z,7.30
2022-08-11T11:06:13.296Z,8.23
2022-08-11T11:06:47.975Z,7.37
2022-08-11T11:07:50.756Z,8.02
2022-08-11T11:08:53.419Z,8.55
2022-08-11T11:09:56.299Z,10.18
2022-08-11T11:10:58.966Z,7.63
2022-08-11T11:12:01.633Z,8.03
2022-08-11T11:13:04.411Z,6.85
2022-08-11T11:14:07.279Z,6.68
2022-08-11T11:15:10.149Z,7.90
2022-08-11T11:16:14.668Z,7.59
2022-08-11T11:17:17.543Z,6.82
2022-08-11T11:18:20.416Z,8.09
2022-08-11T11:19:24.080Z,9.52
2022-08-11T11:20:36.357Z,7.92
2022-08-11T11:21:31.498Z,8.11
2022-08-11T11:22:34.378Z,6.38
2022-08-11T11:23:37.354Z,6.54
2022-08-11T11:24:40.115Z,6.41
2022-08-11T11:25:43.099Z,7.45
2022-08-11T11:26:45.771Z,6.68
2022-08-11T11:27:48.539Z,6.80
2022-08-11T11:28:51.209Z,7.04
2022-08-11T11:29:53.878Z,6.38
2022-08-11T11:30:56.551Z,6.77
2022-08-11T11:31:59.524Z,7.70
2022-08-11T11:33:05.062Z,7.09
2022-08-11T11:34:12.103Z,6.51
2022-08-11T11:35:12.655Z,6.87
2022-08-11T11:36:15.532Z,7.00
2022-08-11T11:37:18.402Z,7.12
2022-08-11T11:38:21.278Z,6.46
2022-08-11T11:39:24.114Z,5.52
2022-08-11T11:40:31.498Z,4.72
2022-08-11T11:41:31.235Z,6.03
2022-08-11T11:42:34.171Z,7.44
2022-08-11T11:43:36.887Z,7.55
2022-08-11T11:44:39.650Z,5.87
2022-08-11T11:45:42.430Z,9.02
2022-08-11T11:46:45.198Z,10.12
2022-08-11T11:47:47.965Z,7.81
2022-08-11T11:48:52.276Z,5.86
2022-08-11T11:49:55.049Z,6.82
2022-08-11T11:50:58.639Z,7.74
2022-08-11T11:52:01.423Z,7.12
2022-08-11T11:53:03.982Z,6.82
2022-08-11T11:54:06.753Z,7.18
2022-08-11T11:55:11.096Z,7.37
2022-08-11T11:56:13.740Z,7.90
2022-08-11T11:57:16.606Z,5.15
2022-08-11T11:58:19.278Z,6.90
2022-08-11T11:59:21.944Z,7.77
2022-08-11T12:00:24.637Z,6.41
2022-08-11T12:01:28.925Z,8.91
2022-08-11T12:02:31.705Z,6.01
2022-08-11T12:03:34.480Z,6.32
2022-08-11T12:04:37.239Z,8.68
2022-08-11T12:05:40.112Z,6.79
2022-08-11T12:06:42.828Z,6.32
2022-08-11T12:07:45.668Z,6.90
2022-08-11T12:08:49.966Z,6.41
2022-08-11T12:09:52.738Z,6.26
2022-08-11T12:10:55.408Z,6.21
2022-08-11T12:11:58.075Z,7.37
2022-08-11T12:13:00.849Z,7.98
2022-08-11T12:14:03.628Z,7.50
2022-08-11T12:15:07.933Z,5.63
2022-08-11T12:16:35.783Z,6.54
2022-08-11T12:17:14.908Z,5.84
2022-08-11T12:18:17.578Z,6.62
2022-08-11T12:19:20.353Z,6.81
2022-08-11T12:20:32.097Z,7.31
2022-08-11T12:21:27.531Z,6.96
2022-08-11T12:22:30.310Z,6.75
2022-08-11T12:23:33.189Z,5.57
2022-08-11T12:24:36.156Z,5.74
2022-08-11T12:25:39.031Z,7.95
2022-08-11T12:26:41.818Z,9.57
2022-08-11T12:27:44.676Z,7.90
2022-08-11T12:28:47.453Z,9.15
2022-08-11T12:29:55.047Z,8.48
2022-08-11T12:30:54.541Z,8.09
2022-08-11T12:31:57.409Z,8.05
2022-08-11T12:33:00.388Z,5.74
2022-08-11T12:34:03.254Z,6.35
2022-08-11T12:35:06.235Z,6.75
2022-08-11T12:36:09.105Z,7.60
2022-08-11T12:37:13.271Z,6.33
2022-08-11T12:38:16.295Z,7.78
2022-08-11T12:39:24.413Z,6.91
2022-08-11T12:40:49.396Z,5.45
2022-08-11T12:41:30.754Z,7.81
2022-08-11T12:42:34.038Z,7.33
2022-08-11T12:43:38.722Z,7.36
2022-08-11T12:44:41.222Z,7.23
2022-08-11T12:45:44.192Z,6.50
2022-08-11T12:46:46.978Z,5.34
2022-08-11T12:48:58.828Z,6.14
2022-08-11T12:48:59.793Z,5.89
2022-08-11T12:49:58.356Z,6.25
2022-08-11T12:51:01.439Z,7.32
2022-08-11T12:52:14.580Z,7.26
2022-08-11T12:53:08.425Z,6.49
2022-08-11T12:54:11.189Z,7.21
2022-08-11T12:55:14.165Z,6.78
2022-08-11T12:56:16.833Z,6.34
2022-08-11T12:57:24.231Z,6.92
2022-08-11T12:58:23.811Z,6.14
2022-08-11T12:59:26.696Z,6.11
2022-08-11T13:00:29.371Z,7.37
2022-08-11T13:01:32.220Z,7.46
2022-08-11T13:02:35.606Z,8.08
2022-08-11T13:03:38.390Z,6.36
2022-08-11T13:04:41.159Z,7.06
2022-08-11T13:05:45.504Z,7.69
2022-08-11T13:06:48.138Z,7.86
2022-08-11T13:07:51.447Z,7.63
2022-08-11T13:08:56.731Z,7.68
2022-08-11T13:09:58.505Z,9.31
2022-08-11T13:11:01.378Z,9.58
2022-08-11T13:12:04.253Z,8.89
2022-08-11T13:13:54.134Z,7.79
2022-08-11T13:14:14.981Z,7.05
2022-08-11T13:15:16.362Z,6.93
2022-08-11T13:16:19.235Z,7.82
2022-08-11T13:17:22.206Z,7.58
2022-08-11T13:18:26.727Z,8.01
2022-08-11T13:19:29.598Z,6.56
2022-08-11T13:20:32.476Z,6.20
2022-08-11T13:21:35.348Z,9.47
2022-08-11T13:22:38.453Z,6.88
2022-08-11T13:23:41.403Z,7.12
2022-08-11T13:24:45.714Z,8.24
2022-08-11T13:25:48.585Z,7.28
2022-08-11T13:26:51.363Z,6.68
2022-08-11T13:27:54.150Z,7.08
2022-08-11T13:28:56.799Z,7.24
2022-08-11T13:29:59.575Z,9.12
2022-08-11T13:31:02.666Z,10.85
2022-08-11T13:32:05.529Z,7.28
2022-08-11T13:33:08.404Z,8.32
2022-08-11T13:34:11.376Z,7.98
2022-08-11T13:35:14.352Z,5.65
2022-08-11T13:36:17.229Z,6.21
2022-08-11T13:37:21.436Z,7.08
2022-08-11T13:38:25.865Z,6.26
2022-08-11T13:39:28.966Z,6.80
2022-08-11T13:40:54.662Z,5.78
2022-08-11T13:41:36.416Z,8.86
2022-08-11T13:42:39.083Z,8.55
2022-08-11T13:43:42.076Z,8.57
2022-08-11T13:44:44.734Z,7.22
2022-08-11T13:45:47.710Z,8.34
2022-08-11T13:46:51.245Z,6.02
2022-08-11T13:47:54.689Z,6.51
2022-08-11T13:49:00.811Z,6.99
2022-08-11T13:50:02.075Z,6.41
2022-08-11T13:51:04.846Z,6.55
2022-08-11T13:52:07.620Z,6.02
2022-08-11T13:53:10.288Z,5.84
2022-08-11T13:54:13.059Z,7.32
2022-08-11T13:55:33.408Z,7.78
2022-08-11T13:56:20.142Z,6.92
2022-08-11T13:58:08.177Z,7.82
2022-08-11T13:58:39.645Z,8.29
2022-08-11T13:59:31.659Z,8.36
2022-08-11T14:00:34.508Z,6.17
2022-08-11T14:02:03.868Z,6.84
2022-08-11T14:02:41.715Z,6.09
2022-08-11T14:04:30.706Z,6.49
2022-08-11T14:04:48.670Z,6.99
2022-08-11T14:05:51.553Z,5.59
2022-08-11T14:06:54.323Z,5.52
2022-08-11T14:07:57.093Z,6.64
2022-08-11T14:08:59.757Z,7.40
2022-08-11T14:10:02.396Z,6.10